Time;durP1;ratioP1;P1;durP2;ratioP2;P2;SDS_P1;SDS_P2;PMS_P1;PMS_P2;Temp;Humidity;BMP_temperature;BMP_pressure;BME280_temperature;BME280_humidity;BME280_pressure;Samples;Min_cycle;Max_cycle;Signal;HPM_P1;HPM_P2
2022/03/13 00:04:50;;;;;;;4.60;2.15;;;-5.60;95.30;;;;;;20989464;28;20306;-52
2022/03/13 00:14:56;;;;;;;6.35;2.55;;;-5.60;94.20;;;;;;20949595;28;20118;-51
2022/03/13 00:25:04;;;;;;;6.43;2.85;;;-5.40;94.70;;;;;;20969373;28;20044;-53
2022/03/13 00:35:07;;;;;;;5.22;2.25;;;-5.30;91.80;;;;;;20969364;28;20036;-52
2022/03/13 00:45:09;;;;;;;7.15;2.65;;;-5.30;94.30;;;;;;20967748;28;20033;-52
2022/03/13 00:55:12;;;;;;;6.57;2.63;;;-5.50;92.60;;;;;;20967549;28;20032;-51
2022/03/13 01:05:26;;;;;;;4.28;1.88;;;-5.60;94.10;;;;;;20966400;28;20067;-54
2022/03/13 01:15:31;;;;;;;3.55;1.98;;;-5.80;93.10;;;;;;20944902;28;20049;-53
2022/03/13 01:25:34;;;;;;;6.10;1.75;;;-5.30;89.90;;;;;;20882185;28;20435;-54
2022/03/13 01:35:36;;;;;;;3.47;1.23;;;-5.40;92.10;;;;;;20881775;28;20388;-52
2022/03/13 01:45:39;;;;;;;4.78;1.88;;;-5.70;90.60;;;;;;20880217;28;20041;-52
2022/03/13 01:55:42;;;;;;;5.57;2.03;;;-5.90;90.40;;;;;;20881780;28;20503;-55
2022/03/13 02:05:45;;;;;;;6.20;2.40;;;-5.90;91.10;;;;;;20880174;28;20068;-53
2022/03/13 02:15:48;;;;;;;4.77;1.90;;;-6.00;90.70;;;;;;20902603;28;20071;-52
2022/03/13 02:25:58;;;;;;;6.15;2.10;;;-6.00;90.90;;;;;;20962760;28;20036;-52
2022/03/13 02:36:03;;;;;;;4.93;2.05;;;-6.00;90.90;;;;;;20962460;28;20098;-53
2022/03/13 02:46:20;;;;;;;5.03;2.10;;;-6.20;90.90;;;;;;20962283;28;20033;-53
2022/03/13 02:56:22;;;;;;;7.88;3.45;;;-6.10;89.50;;;;;;20968286;28;20040;-51
2022/03/13 03:06:28;;;;;;;7.47;3.40;;;-6.00;91.80;;;;;;20975873;28;20067;-51
2022/03/13 03:16:31;;;;;;;9.03;4.27;;;-6.20;92.60;;;;;;20974331;28;20041;-52
2022/03/13 03:26:36;;;;;;;9.15;4.00;;;-6.30;95.30;;;;;;20974232;28;20433;-53
2022/03/13 03:36:47;;;;;;;13.80;5.10;;;-6.30;94.90;;;;;;20973514;28;20044;-51
2022/03/13 03:46:52;;;;;;;6.50;3.03;;;-6.30;95.90;;;;;;20972436;28;20052;-52
2022/03/13 03:56:54;;;;;;;7.30;3.38;;;-6.30;95.10;;;;;;20972149;28;20114;-52
2022/03/13 04:06:57;;;;;;;7.95;3.40;;;-6.30;94.50;;;;;;20970323;28;20056;-55
2022/03/13 04:17:00;;;;;;;6.47;2.70;;;-6.10;93.80;;;;;;20970009;28;20049;-51
2022/03/13 04:27:03;;;;;;;8.52;3.35;;;-5.90;92.70;;;;;;20969393;28;20048;-54
2022/03/13 04:37:05;;;;;;;5.07;2.58;;;-5.90;92.60;;;;;;20951886;28;20036;-55
2022/03/13 04:47:08;;;;;;;5.20;2.70;;;-5.90;92.40;;;;;;20967526;28;20090;-52
2022/03/13 04:57:10;;;;;;;6.90;2.70;;;-6.10;90.80;;;;;;20966658;28;20456;-53
2022/03/13 05:07:14;;;;;;;5.60;1.90;;;-6.00;91.90;;;;;;20966469;28;20037;-51
2022/03/13 05:17:16;;;;;;;3.72;1.70;;;-6.30;91.10;;;;;;20965779;28;20053;-51
2022/03/13 05:27:20;;;;;;;5.23;2.10;;;-6.30;90.90;;;;;;20965354;28;20446;-54
2022/03/13 05:37:24;;;;;;;4.23;1.70;;;-6.40;90.20;;;;;;20964459;28;20364;-54
2022/03/13 05:47:27;;;;;;;4.30;1.60;;;-6.30;88.60;;;;;;20967687;28;20040;-53
2022/03/13 05:57:29;;;;;;;4.13;1.77;;;-6.20;90.10;;;;;;20966661;28;20422;-51
2022/03/13 06:07:33;;;;;;;6.32;2.45;;;-6.20;90.20;;;;;;20964790;28;20464;-51
2022/03/13 06:17:40;;;;;;;4.40;1.92;;;-6.00;90.80;;;;;;20965027;28;20037;-52
2022/03/13 06:27:44;;;;;;;5.78;2.70;;;-5.80;90.40;;;;;;20967230;28;20464;-52
2022/03/13 06:37:49;;;;;;;6.78;2.78;;;-5.60;90.20;;;;;;20979472;28;20040;-51
2022/03/13 06:47:52;;;;;;;7.93;3.00;;;-5.40;91.30;;;;;;20980273;28;20037;-52
2022/03/13 06:57:55;;;;;;;9.25;3.72;;;-5.30;92.10;;;;;;20978526;28;20083;-51
2022/03/13 07:07:58;;;;;;;10.80;4.65;;;-4.90;92.60;;;;;;20977718;28;20040;-50
2022/03/13 07:18:00;;;;;;;13.50;5.70;;;-4.50;93.40;;;;;;20976079;28;20052;-51
2022/03/13 07:28:03;;;;;;;12.68;5.70;;;-3.70;93.90;;;;;;20975948;28;20074;-52
2022/03/13 07:38:06;;;;;;;15.57;7.03;;;-2.70;93.70;;;;;;20974863;28;20456;-54
2022/03/13 07:48:08;;;;;;;15.73;7.00;;;-1.60;92.70;;;;;;20973134;28;20040;-51
2022/03/13 07:58:12;;;;;;;14.55;7.18;;;-0.30;93.20;;;;;;20972908;28;20040;-52
2022/03/13 08:08:18;;;;;;;14.63;7.35;;;0.70;90.40;;;;;;20971349;28;20037;-51
2022/03/13 08:18:21;;;;;;;13.15;7.38;;;1.50;89.00;;;;;;20970597;28;20040;-50
2022/03/13 08:28:24;;;;;;;13.85;7.80;;;2.20;85.90;;;;;;20969179;28;20051;-54
2022/03/13 08:38:27;;;;;;;15.65;7.50;;;2.70;86.70;;;;;;20968818;28;20085;-53
2022/03/13 08:48:30;;;;;;;12.25;7.18;;;3.20;85.60;;;;;;20951755;28;20036;-51
2022/03/13 08:58:32;;;;;;;12.73;6.82;;;3.50;82.80;;;;;;20966768;28;20040;-51
2022/03/13 09:08:36;;;;;;;13.70;6.97;;;3.90;79.70;;;;;;20967365;28;20040;-53
2022/03/13 09:18:39;;;;;;;14.43;6.35;;;4.20;77.70;;;;;;20965432;28;20044;-56
2022/03/13 09:28:42;;;;;;;14.13;6.35;;;4.70;76.50;;;;;;20964497;28;20361;-56
2022/03/13 09:38:45;;;;;;;10.93;5.85;;;5.10;74.00;;;;;;20964590;28;20072;-52
2022/03/13 09:48:52;;;;;;;10.50;5.82;;;5.30;72.40;;;;;;20964615;28;20037;-51
2022/03/13 09:58:55;;;;;;;11.13;6.20;;;5.60;71.20;;;;;;20947056;28;20032;-52
2022/03/13 10:08:59;;;;;;;11.18;6.13;;;5.90;70.70;;;;;;20975192;28;20037;-54
2022/03/13 10:19:19;;;;;;;11.32;5.72;;;6.50;71.30;;;;;;20979746;28;20103;-53
2022/03/13 10:29:31;;;;;;;10.55;5.47;;;6.80;66.90;;;;;;20979391;28;20110;-55
2022/03/13 10:39:34;;;;;;;7.65;4.35;;;6.90;67.60;;;;;;20978074;28;20483;-55
2022/03/13 10:49:42;;;;;;;9.75;4.90;;;7.20;65.90;;;;;;20977289;28;20036;-56
2022/03/13 11:00:05;;;;;;;9.70;4.95;;;7.60;66.30;;;;;;20977477;28;20036;-54
2022/03/13 11:10:10;;;;;;;8.57;4.88;;;7.60;66.60;;;;;;20975595;28;20032;-58
2022/03/13 11:20:15;;;;;;;6.63;4.15;;;7.80;67.90;;;;;;20974895;28;20044;-56
2022/03/13 11:30:31;;;;;;;9.30;4.85;;;7.60;69.90;;;;;;20975229;28;20117;-56
2022/03/13 11:40:37;;;;;;;10.82;4.88;;;7.60;68.50;;;;;;20974716;28;20075;-55
2022/03/13 11:51:00;;;;;;;9.48;4.95;;;7.50;73.40;;;;;;20973470;28;20040;-57
2022/03/13 12:01:07;;;;;;;8.32;5.15;;;7.80;72.70;;;;;;20972583;28;20106;-56
2022/03/13 12:11:55;;;;;;;8.02;5.30;;;7.80;72.80;;;;;;20970677;28;20091;-52
2022/03/13 12:21:59;;;;;;;8.98;4.80;;;7.70;74.30;;;;;;20714284;28;20139;-57
2022/03/13 12:32:09;;;;;;;9.70;5.55;;;7.70;74.80;;;;;;20729510;28;20568;-55
2022/03/13 12:42:12;;;;;;;10.07;5.00;;;7.60;75.40;;;;;;20713050;28;20595;-57
2022/03/13 12:52:15;;;;;;;9.07;5.00;;;7.60;74.30;;;;;;20945738;28;20049;-58
2022/03/13 13:02:23;;;;;;;11.10;4.97;;;7.50;75.40;;;;;;20966562;28;20040;-58
2022/03/13 13:12:32;;;;;;;15.90;5.13;;;7.30;73.30;;;;;;20965786;28;20450;-58
2022/03/13 13:22:44;;;;;;;8.10;4.65;;;7.40;75.70;;;;;;20965619;28;20049;-54
2022/03/13 13:32:48;;;;;;;8.45;5.18;;;7.30;74.40;;;;;;20965191;28;20396;-58
2022/03/13 13:42:59;;;;;;;9.13;5.43;;;7.20;74.30;;;;;;20965530;28;20082;-58
2022/03/13 13:53:02;;;;;;;7.75;4.22;;;7.10;73.40;;;;;;20947434;28;20098;-57
2022/03/13 14:03:05;;;;;;;7.05;4.57;;;6.60;73.90;;;;;;20965072;28;20028;-57
2022/03/13 14:13:08;;;;;;;8.30;4.70;;;5.90;75.60;;;;;;20963083;28;20036;-60
2022/03/13 14:23:11;;;;;;;9.70;5.38;;;5.60;76.40;;;;;;20962457;28;20427;-59
2022/03/13 14:33:16;;;;;;;7.28;4.50;;;5.20;77.10;;;;;;20962246;28;20429;-59
2022/03/13 14:43:21;;;;;;;8.25;4.53;;;4.70;77.40;;;;;;20945240;28;20297;-60
2022/03/13 14:53:23;;;;;;;10.13;4.90;;;4.40;78.80;;;;;;20969785;28;20037;-58
2022/03/13 15:03:28;;;;;;;8.00;4.30;;;4.00;78.60;;;;;;20992681;28;20036;-54
2022/03/13 15:13:32;;;;;;;7.28;4.10;;;3.60;79.50;;;;;;20975633;28;20434;-59
2022/03/13 15:23:34;;;;;;;10.73;4.10;;;3.10;81.60;;;;;;20959048;28;20071;-56
2022/03/13 15:33:39;;;;;;;9.65;4.70;;;2.90;82.40;;;;;;20991865;28;20047;-57
2022/03/13 15:43:42;;;;;;;7.00;4.50;;;2.50;83.20;;;;;;20973484;28;20432;-59
2022/03/13 15:53:45;;;;;;;8.75;4.18;;;2.30;84.10;;;;;;20955672;28;20086;-55
2022/03/13 16:03:48;;;;;;;8.68;5.00;;;2.00;85.60;;;;;;20954636;28;20032;-56
2022/03/13 16:13:53;;;;;;;9.25;4.78;;;1.30;87.20;;;;;;20966192;28;20445;-58
2022/03/13 16:23:59;;;;;;;10.65;5.10;;;0.70;89.90;;;;;;20887700;28;20289;-55
2022/03/13 16:34:01;;;;;;;7.85;4.07;;;0.20;90.70;;;;;;20649280;28;20090;-57
2022/03/13 16:44:05;;;;;;;9.48;4.95;;;-0.20;91.20;;;;;;20632343;28;20046;-57
2022/03/13 16:54:07;;;;;;;10.23;4.80;;;-0.60;92.20;;;;;;20631170;28;20057;-56
2022/03/13 17:04:16;;;;;;;8.13;4.60;;;-1.00;93.10;;;;;;20630946;28;20050;-57
2022/03/13 17:14:19;;;;;;;8.20;4.95;;;-1.20;93.60;;;;;;20726359;28;20412;-57
2022/03/13 17:24:28;;;;;;;9.00;4.60;;;-1.60;94.70;;;;;;20882970;28;20044;-57
2022/03/13 17:34:31;;;;;;;9.35;4.80;;;-2.00;95.60;;;;;;20899891;28;20538;-56
2022/03/13 17:44:34;;;;;;;8.50;4.72;;;-2.20;96.70;;;;;;20882694;28;20465;-56
2022/03/13 17:54:37;;;;;;;10.00;4.65;;;-2.30;97.70;;;;;;20880982;28;20032;-58
2022/03/13 18:04:39;;;;;;;10.00;5.03;;;-2.50;98.60;;;;;;20880717;28;20037;-56
2022/03/13 18:14:43;;;;;;;10.13;5.07;;;-2.60;99.70;;;;;;20930651;28;20106;-55
2022/03/13 18:24:46;;;;;;;11.20;5.15;;;-2.90;99.90;;;;;;20966227;28;20110;-54
2022/03/13 18:34:48;;;;;;;9.90;5.07;;;-3.00;99.90;;;;;;20978411;28;20377;-53
2022/03/13 18:44:51;;;;;;;10.15;5.80;;;-3.10;99.90;;;;;;20977820;28;20040;-53
2022/03/13 18:54:53;;;;;;;9.57;5.03;;;-3.20;99.90;;;;;;20976907;28;20036;-54
2022/03/13 19:04:56;;;;;;;10.32;5.05;;;-3.20;99.90;;;;;;20976768;28;20032;-58
2022/03/13 19:14:59;;;;;;;12.55;5.80;;;-3.40;99.90;;;;;;20935944;28;20037;-53
2022/03/13 19:25:06;;;;;;;10.38;5.57;;;-3.40;99.90;;;;;;20974570;28;20132;-53
2022/03/13 19:35:11;;;;;;;12.60;6.18;;;-3.50;99.90;;;;;;20957573;28;20045;-53
2022/03/13 19:45:14;;;;;;;10.25;5.47;;;-3.60;99.90;;;;;;20973433;28;20086;-55
2022/03/13 19:55:19;;;;;;;11.57;5.97;;;-3.60;99.90;;;;;;20956414;28;20086;-54
2022/03/13 20:05:24;;;;;;;12.20;6.15;;;-3.60;99.90;;;;;;20971956;28;20086;-53
2022/03/13 20:15:27;;;;;;;10.90;5.43;;;-3.60;99.90;;;;;;20953455;28;20106;-53
2022/03/13 20:25:32;;;;;;;13.65;5.80;;;-3.70;99.90;;;;;;20887621;28;20094;-52
2022/03/13 20:35:36;;;;;;;14.25;5.90;;;-3.80;99.90;;;;;;20886608;28;20060;-52
2022/03/13 20:45:40;;;;;;;14.57;7.20;;;-3.80;99.90;;;;;;20869575;28;20041;-56
2022/03/13 20:55:43;;;;;;;13.02;6.68;;;-3.80;99.90;;;;;;20886266;28;20461;-55
2022/03/13 21:05:46;;;;;;;14.07;7.47;;;-3.80;99.90;;;;;;20884150;28;20098;-53
2022/03/13 21:15:49;;;;;;;16.48;7.82;;;-3.80;99.90;;;;;;20903656;28;20048;-52
2022/03/13 21:25:52;;;;;;;12.32;6.72;;;-3.80;99.90;;;;;;20966898;28;20441;-52
2022/03/13 21:35:57;;;;;;;13.27;6.60;;;-3.50;99.90;;;;;;20965106;28;20099;-54
2022/03/13 21:46:00;;;;;;;14.15;6.57;;;-3.50;99.90;;;;;;20965365;28;20089;-53
2022/03/13 21:56:03;;;;;;;12.45;5.68;;;-3.40;99.90;;;;;;20965266;28;20099;-57
2022/03/13 22:06:05;;;;;;;12.35;6.38;;;-3.50;99.90;;;;;;20962383;28;20086;-52
2022/03/13 22:16:10;;;;;;;14.60;6.55;;;-3.50;99.90;;;;;;20962519;28;20357;-52
2022/03/13 22:26:14;;;;;;;14.25;6.50;;;-3.40;99.90;;;;;;20963266;28;20083;-55
2022/03/13 22:36:19;;;;;;;13.15;6.32;;;-3.40;99.90;;;;;;20962484;28;20078;-53
2022/03/13 22:46:22;;;;;;;15.07;7.63;;;-3.40;99.90;;;;;;20962324;28;20048;-53
2022/03/13 22:56:25;;;;;;;14.35;7.75;;;-3.30;99.90;;;;;;20961677;28;20477;-53
2022/03/13 23:06:28;;;;;;;14.35;7.40;;;-3.00;99.90;;;;;;20961334;28;20439;-56
2022/03/13 23:16:30;;;;;;;13.30;7.93;;;-2.50;99.90;;;;;;20945629;28;20273;-52
2022/03/13 23:26:33;;;;;;;11.93;6.90;;;-2.00;99.90;;;;;;20908847;28;20106;-55
2022/03/13 23:36:38;;;;;;;14.52;7.03;;;-1.70;99.90;;;;;;20858777;28;20037;-55
2022/03/13 23:46:43;;;;;;;11.52;6.40;;;-1.40;99.90;;;;;;20891876;28;20033;-53
2022/03/13 23:56:45;;;;;;;11.90;6.70;;;-1.20;99.90;;;;;;20890158;28;20107;-52
